Tropical Cyclones
[Index]
Main Index Home Page Stock Weather Photos Extreme Storms Discussion Storm News and Storm Chasing Reports Tropical Cyclones / Hurricanes / Typhoons Weather Data and Links Wild Fires / Bushfires Weather Observation Techniques Weather Picture Catalogue Tornado Pictures and Reports Stock Video Footage and DVDs for sale
Season 1981-1982 Tropical Cyclone JUSTINE Track Map
Season 1981-1982 Summaries: [BoM-AU] [JTWC-AU] [JTWC-SIO] [JTWC-SPAC] [JTWC-SH]
<<- Previous TC | JTWC 1981-1982 Season | Next TC ->>

click for intensity scale information  Lat/long Grid: Show Hide

 Date Labels: Show Hide

Joint Typhoon Warning Centre Cyclone Data

Name: JUSTINE

16 Mar 1982 06:00 UTC to 25 Mar 1982 18:00 UTC

    date/time    lat    long     hPa   cat  kts
1982-03-16 06   12.2    54.7                  25          
1982-03-16 12   12.2    54.2                  30          
1982-03-16 18   12.3    53.8                  35          
1982-03-17 00   12.5    53.4            1     40          
1982-03-17 06   12.7    53.0            1     45          
1982-03-17 12   12.8    52.6            1     50          
1982-03-17 18   12.9    52.1            2     55          
1982-03-18 00   13.1    51.5            2     65          
1982-03-18 06   13.4    50.9            2     70          
1982-03-18 12   13.7    50.2            2     70          
1982-03-18 18   14.1    49.5            2     60          
1982-03-19 00   14.5    48.7            1     45          
1982-03-19 06   14.8    47.8                  35          
1982-03-19 12   15.1    46.6                  35          
1982-03-19 18   15.3    45.4            1     40          
1982-03-20 00   15.5    44.6            1     45          
1982-03-20 06   15.8    43.8            1     50          
1982-03-20 12   16.1    43.0            1     50          
1982-03-20 18   16.4    42.3            2     55          
1982-03-21 00   16.6    41.6            2     55          
1982-03-21 06   16.8    40.9            2     60          
1982-03-21 12   17.0    40.3            2     60          
1982-03-21 18   17.2    39.9            2     65          
1982-03-22 00   17.3    39.5            2     70          
1982-03-22 06   17.4    39.2            2     70          
1982-03-22 12   17.5    39.0            2     70          
1982-03-22 18   17.8    38.8            2     70          
1982-03-23 00   18.1    38.8            2     70          
1982-03-23 06   18.5    38.8            2     70          
1982-03-23 12   18.8    38.9            2     70          
1982-03-23 18   19.2    39.1            2     70          
1982-03-24 00   19.6    39.4            2     70          
1982-03-24 06   20.2    39.9            2     70          
1982-03-24 12   21.0    40.5            3     75          
1982-03-24 18   21.9    41.3            3     75          
1982-03-25 00   22.9    42.4            2     70          
1982-03-25 06   24.1    43.5            2     65          
1982-03-25 12   25.6    44.3            2     60          
1982-03-25 18   27.3    44.8            1     50          
Winds are 1-min average.

Tropical cyclone tracks developed by Michael Bath using data from the Joint Typhoon Warning Centre Best Tracks and Google Maps.


[Australian Severe Weather index] [Copyright Notice] [Email Contacts] [Search This Site] [Privacy Policy]
Document: tropical_cyclone_justine.htm Updated: 18 September 2016